Time;durP1;ratioP1;P1;durP2;ratioP2;P2;SDS_P1;SDS_P2;PMS_P1;PMS_P2;Temp;Humidity;BMP_temperature;BMP_pressure;BME280_temperature;BME280_humidity;BME280_pressure;Samples;Min_cycle;Max_cycle;Signal;HPM_P1;HPM_P2
2023/06/07 00:01:08;;;;;;;6.57;3.65;;;;;;;;;;6307673;22;20437;-90
2023/06/07 00:03:34;;;;;;;7.95;3.97;;;;;;;;;;6282394;22;20019;-89
2023/06/07 00:06:03;;;;;;;7.32;3.80;;;;;;;;;;6307794;22;20019;-90
2023/06/07 00:08:31;;;;;;;3.10;2.80;;;;;;;;;;6281636;22;20015;-90
2023/06/07 00:10:58;;;;;;;5.85;3.53;;;;;;;;;;6281050;22;20019;-90
2023/06/07 00:13:26;;;;;;;5.43;3.60;;;;;;;;;;6306887;22;20066;-90
2023/06/07 00:15:55;;;;;;;10.32;4.35;;;;;;;;;;6281433;22;20015;-90
2023/06/07 00:18:21;;;;;;;4.97;3.45;;;;;;;;;;6282150;22;20023;-89
2023/06/07 00:20:53;;;;;;;6.72;3.08;;;;;;;;;;6280275;22;20314;-90
2023/06/07 00:23:28;;;;;;;6.45;4.05;;;;;;;;;;6307849;22;20458;-90
2023/06/07 00:25:56;;;;;;;7.03;4.13;;;;;;;;;;6281114;22;20011;-90
2023/06/07 00:28:25;;;;;;;5.47;3.58;;;;;;;;;;6307444;22;20015;-91
2023/06/07 00:30:51;;;;;;;6.75;4.00;;;;;;;;;;6281483;22;20015;-91
2023/06/07 00:33:19;;;;;;;7.57;4.35;;;;;;;;;;6281823;22;20026;-91
2023/06/07 00:35:47;;;;;;;9.52;4.70;;;;;;;;;;6307332;22;20456;-90
2023/06/07 00:38:14;;;;;;;6.25;4.28;;;;;;;;;;6307708;22;20402;-90
2023/06/07 00:40:43;;;;;;;9.68;4.35;;;;;;;;;;6281047;22;20016;-90
2023/06/07 00:43:09;;;;;;;9.02;3.75;;;;;;;;;;6281168;22;20057;-90
2023/06/07 00:45:40;;;;;;;6.75;3.90;;;;;;;;;;6281594;22;20019;-90
2023/06/07 00:48:07;;;;;;;8.55;4.53;;;;;;;;;;6280756;22;20016;-90
2023/06/07 00:50:34;;;;;;;8.13;4.10;;;;;;;;;;6280359;22;20019;-90
2023/06/07 00:53:00;;;;;;;7.35;4.13;;;;;;;;;;6280723;22;20089;-90
2023/06/07 00:55:27;;;;;;;5.70;4.00;;;;;;;;;;6281079;22;20015;-90
2023/06/07 00:57:56;;;;;;;7.75;4.18;;;;;;;;;;6280659;22;20015;-91
2023/06/07 01:00:23;;;;;;;9.50;4.10;;;;;;;;;;6306888;22;20372;-90
2023/06/07 01:02:52;;;;;;;10.23;4.88;;;;;;;;;;6281585;22;20438;-89
2023/06/07 01:05:20;;;;;;;5.32;3.70;;;;;;;;;;6283182;22;20034;-90
2023/06/07 01:07:50;;;;;;;5.65;3.45;;;;;;;;;;6261452;22;20011;-90
2023/06/07 01:10:17;;;;;;;7.45;4.90;;;;;;;;;;6282615;22;20019;-90
2023/06/07 01:12:44;;;;;;;8.20;5.07;;;;;;;;;;6281230;22;20460;-90
2023/06/07 01:15:12;;;;;;;8.85;4.22;;;;;;;;;;6281182;22;20048;-90
2023/06/07 01:17:44;;;;;;;7.32;4.32;;;;;;;;;;6281536;22;20015;-90
2023/06/07 01:20:13;;;;;;;;;;;;;;;;;;6281415;22;20011;-89
2023/06/07 01:22:42;;;;;;;6.25;4.50;;;;;;;;;;6306167;22;19915;-89
2023/06/07 01:25:08;;;;;;;8.57;4.75;;;;;;;;;;6280844;22;20045;-89
2023/06/07 01:27:53;;;;;;;10.48;4.78;;;;;;;;;;5091178;27;20401;-90
2023/06/07 01:30:22;;;;;;;6.82;4.38;;;;;;;;;;5090437;28;20135;-90
2023/06/07 01:32:49;;;;;;;10.30;4.95;;;;;;;;;;5090534;28;20048;-90
2023/06/07 01:35:15;;;;;;;7.70;5.05;;;;;;;;;;5073768;28;20055;-91
2023/06/07 01:37:42;;;;;;;8.43;5.05;;;;;;;;;;5090586;28;20052;-91
2023/06/07 01:40:14;;;;;;;5.80;4.47;;;;;;;;;;5074093;28;20147;-90
2023/06/07 01:42:41;;;;;;;9.95;5.43;;;;;;;;;;5073642;28;20052;-91
2023/06/07 01:45:10;;;;;;;8.57;5.18;;;;;;;;;;5073650;28;20047;-91
2023/06/07 01:47:39;;;;;;;6.90;5.15;;;;;;;;;;5073059;28;20040;-90
2023/06/07 01:50:05;;;;;;;7.18;5.15;;;;;;;;;;5073306;28;20044;-90
2023/06/07 01:52:31;;;;;;;10.10;5.95;;;;;;;;;;5089308;28;20508;-91
2023/06/07 01:54:58;;;;;;;8.90;5.53;;;;;;;;;;5090934;28;20044;-91
2023/06/07 01:57:35;;;;;;;8.05;5.28;;;;;;;;;;5073620;28;20073;-91
2023/06/07 02:00:31;;;;;;;8.48;5.25;;;;;;;;;;5090964;28;20452;-91
2023/06/07 02:02:59;;;;;;;6.97;5.70;;;;;;;;;;5038001;28;20049;-91
2023/06/07 02:05:29;;;;;;;7.95;5.35;;;;;;;;;;5074819;28;20078;-91
2023/06/07 02:07:59;;;;;;;7.75;5.13;;;;;;;;;;5074766;28;20044;-90
2023/06/07 02:10:26;;;;;;;9.57;4.65;;;;;;;;;;5077985;28;20048;-90
2023/06/07 02:12:53;;;;;;;5.13;4.57;;;;;;;;;;5089536;28;20078;-90
2023/06/07 02:15:20;;;;;;;6.97;5.47;;;;;;;;;;5142552;27;20055;-90
2023/06/07 02:17:49;;;;;;;7.95;5.95;;;;;;;;;;5076492;28;20048;-92
2023/06/07 02:20:18;;;;;;;11.27;6.72;;;;;;;;;;5075396;28;20047;-90
2023/06/07 02:22:44;;;;;;;8.80;6.50;;;;;;;;;;5072805;28;20097;-92
2023/06/07 02:25:13;;;;;;;9.80;6.55;;;;;;;;;;5089876;28;20438;-91
2023/06/07 02:27:39;;;;;;;8.90;6.05;;;;;;;;;;5089503;28;20063;-91
2023/06/07 02:30:06;;;;;;;10.88;6.72;;;;;;;;;;5072202;28;20485;-91
2023/06/07 02:32:33;;;;;;;10.65;7.13;;;;;;;;;;5072062;28;20481;-91
2023/06/07 02:34:59;;;;;;;14.40;7.68;;;;;;;;;;5072380;28;20109;-91
2023/06/07 02:37:25;;;;;;;9.27;7.57;;;;;;;;;;5068421;28;20056;-91
2023/06/07 02:39:51;;;;;;;11.57;7.78;;;;;;;;;;5059401;28;20052;-91
2023/06/07 02:42:23;;;;;;;17.02;7.90;;;;;;;;;;5059145;28;20442;-92
2023/06/07 02:44:49;;;;;;;13.93;7.20;;;;;;;;;;5058970;28;20084;-91
2023/06/07 02:47:15;;;;;;;11.70;7.93;;;;;;;;;;5058890;28;20044;-91
2023/06/07 02:49:41;;;;;;;16.48;8.25;;;;;;;;;;5042495;28;20488;-91
2023/06/07 02:52:07;;;;;;;13.55;7.68;;;;;;;;;;5041866;28;20484;-90
2023/06/07 02:54:34;;;;;;;13.40;8.43;;;;;;;;;;5058683;28;20508;-90
2023/06/07 02:57:03;;;;;;;11.48;7.32;;;;;;;;;;5042428;28;20036;-90
2023/06/07 02:59:29;;;;;;;10.38;7.45;;;;;;;;;;5058801;28;20101;-91
2023/06/07 03:01:55;;;;;;;12.52;7.88;;;;;;;;;;5058755;28;20445;-91
2023/06/07 03:04:22;;;;;;;9.77;8.20;;;;;;;;;;5059246;28;20052;-90
2023/06/07 03:06:51;;;;;;;12.90;8.45;;;;;;;;;;5058162;28;20043;-90
2023/06/07 03:09:23;;;;;;;10.38;8.25;;;;;;;;;;5075441;28;20131;-90
2023/06/07 03:11:49;;;;;;;16.48;8.45;;;;;;;;;;5058634;28;20424;-90
2023/06/07 03:14:18;;;;;;;12.43;8.98;;;;;;;;;;5058783;28;20092;-91
2023/06/07 03:16:45;;;;;;;10.57;8.43;;;;;;;;;;5058361;28;20044;-90
2023/06/07 03:19:14;;;;;;;12.27;8.10;;;;;;;;;;5058295;28;20053;-90
2023/06/07 03:21:42;;;;;;;14.60;8.65;;;;;;;;;;5058383;28;20051;-91
2023/06/07 03:24:10;;;;;;;14.07;8.80;;;;;;;;;;5074884;28;20057;-90
2023/06/07 03:26:37;;;;;;;9.65;8.52;;;;;;;;;;5057595;28;20182;-89
2023/06/07 03:29:05;;;;;;;11.90;8.90;;;;;;;;;;5057888;28;20044;-91
2023/06/07 03:31:31;;;;;;;11.52;8.95;;;;;;;;;;5041731;28;20052;-91
2023/06/07 03:33:58;;;;;;;16.88;10.13;;;;;;;;;;5057071;28;20056;-91
2023/06/07 03:36:28;;;;;;;10.82;8.45;;;;;;;;;;5073676;28;20102;-90
2023/06/07 03:39:01;;;;;;;13.05;8.38;;;;;;;;;;5057591;28;20098;-91
2023/06/07 03:41:30;;;;;;;11.40;8.85;;;;;;;;;;5058311;28;20048;-91
2023/06/07 03:43:56;;;;;;;10.88;9.68;;;;;;;;;;5057874;28;20052;-91
2023/06/07 03:46:22;;;;;;;10.13;8.48;;;;;;;;;;5058140;28;20036;-90
2023/06/07 03:48:48;;;;;;;16.80;9.65;;;;;;;;;;5074477;28;20048;-91
2023/06/07 03:51:17;;;;;;;11.13;9.20;;;;;;;;;;5063405;28;20043;-93
2023/06/07 03:53:50;;;;;;;18.35;9.32;;;;;;;;;;5058788;28;20115;-90
2023/06/07 03:56:16;;;;;;;13.40;9.40;;;;;;;;;;5058259;28;20549;-88
2023/06/07 03:58:46;;;;;;;12.73;9.73;;;;;;;;;;5057020;28;20048;-90
2023/06/07 04:01:14;;;;;;;10.10;8.40;;;;;;;;;;5073690;28;20515;-89
2023/06/07 04:03:42;;;;;;;12.88;10.55;;;;;;;;;;5074002;28;20048;-88
2023/06/07 04:06:11;;;;;;;11.98;9.18;;;;;;;;;;5073860;28;20041;-88
2023/06/07 04:08:38;;;;;;;14.02;9.02;;;;;;;;;;5056956;28;20044;-90
2023/06/07 04:11:10;;;;;;;13.40;9.15;;;;;;;;;;5057752;28;20102;-96
2023/06/07 04:13:36;;;;;;;15.35;9.05;;;;;;;;;;5057851;28;20048;-89
2023/06/07 04:16:02;;;;;;;15.95;10.02;;;;;;;;;;5056972;28;20048;-91
2023/06/07 04:18:28;;;;;;;12.15;8.25;;;;;;;;;;5057648;28;20050;-90
2023/06/07 04:21:03;;;;;;;13.23;8.05;;;;;;;;;;5075432;28;20045;-90
2023/06/07 04:23:32;;;;;;;14.90;8.95;;;;;;;;;;5057687;28;20051;-90
2023/06/07 04:25:59;;;;;;;16.05;8.05;;;;;;;;;;5056445;28;20436;-89
2023/06/07 04:28:30;;;;;;;14.10;7.18;;;;;;;;;;5074442;28;20068;-90
2023/06/07 04:31:08;;;;;;;;;;;;;;;;;;;;;
2023/06/07 04:33:37;;;;;;;14.27;7.47;;;;;;;;;;5077934;28;20044;-90
2023/06/07 04:36:14;;;;;;;14.63;6.85;;;;;;;;;;5059853;28;20083;-91
2023/06/07 04:38:49;;;;;;;15.88;6.30;;;;;;;;;;5056619;28;20055;-91
2023/06/07 04:41:15;;;;;;;13.38;5.85;;;;;;;;;;5056823;28;20084;-90
2023/06/07 04:43:43;;;;;;;15.27;5.75;;;;;;;;;;5057067;28;20075;-90
2023/06/07 04:46:10;;;;;;;8.75;4.93;;;;;;;;;;5073288;28;20424;-92
2023/06/07 04:48:44;;;;;;;18.35;6.43;;;;;;;;;;5074638;28;20395;-90
2023/06/07 04:51:13;;;;;;;13.50;4.72;;;;;;;;;;5056292;28;20044;-90
2023/06/07 04:53:47;;;;;;;13.85;4.03;;;;;;;;;;5073359;28;20135;-91
2023/06/07 04:56:13;;;;;;;10.18;4.32;;;;;;;;;;5056772;28;20044;-91
2023/06/07 04:58:49;;;;;;;14.90;4.97;;;;;;;;;;5056516;28;20048;-91
2023/06/07 05:01:20;;;;;;;11.73;4.53;;;;;;;;;;5057136;28;20067;-92
2023/06/07 05:03:46;;;;;;;13.05;4.15;;;;;;;;;;5057455;28;20047;-92
2023/06/07 05:06:20;;;;;;;11.60;4.15;;;;;;;;;;5057491;28;20101;-92
2023/06/07 05:08:47;;;;;;;12.57;4.47;;;;;;;;;;5044717;28;20037;-92
2023/06/07 05:11:13;;;;;;;11.02;3.83;;;;;;;;;;5056999;28;20053;-93
2023/06/07 05:13:41;;;;;;;14.07;4.40;;;;;;;;;;5056702;28;20427;-92
2023/06/07 05:16:15;;;;;;;9.93;3.30;;;;;;;;;;5056771;28;20051;-92
2023/06/07 05:18:46;;;;;;;17.20;4.47;;;;;;;;;;5057653;28;20512;-93
2023/06/07 05:21:13;;;;;;;11.65;4.25;;;;;;;;;;5056568;28;20044;-92
2023/06/07 05:23:40;;;;;;;16.52;3.88;;;;;;;;;;5056587;28;20052;-93
2023/06/07 05:26:21;;;;;;;14.18;4.05;;;;;;;;;;5057101;28;20044;-93
2023/06/07 05:28:47;;;;;;;14.43;4.25;;;;;;;;;;5058149;28;20047;-92
2023/06/07 05:31:15;;;;;;;10.70;3.65;;;;;;;;;;5057629;28;20045;-92
2023/06/07 05:33:44;;;;;;;13.05;5.05;;;;;;;;;;5076533;28;20073;-93
2023/06/07 05:36:11;;;;;;;16.73;4.65;;;;;;;;;;5059914;28;20502;-94
2023/06/07 05:38:39;;;;;;;9.63;3.85;;;;;;;;;;5042586;28;20052;-93
2023/06/07 05:41:05;;;;;;;11.85;4.03;;;;;;;;;;5043236;28;20473;-93
2023/06/07 05:43:32;;;;;;;11.18;3.90;;;;;;;;;;5058327;28;20102;-93
2023/06/07 05:45:58;;;;;;;12.82;4.45;;;;;;;;;;5073789;28;20036;-93
2023/06/07 05:48:24;;;;;;;13.82;3.97;;;;;;;;;;5056974;28;20117;-91
2023/06/07 05:50:55;;;;;;;11.45;4.10;;;;;;;;;;5056619;28;20104;-93
2023/06/07 05:53:24;;;;;;;9.82;4.43;;;;;;;;;;5074010;28;20044;-92
2023/06/07 05:55:53;;;;;;;14.20;4.57;;;;;;;;;;5055783;28;20040;-91
2023/06/07 05:58:19;;;;;;;16.48;4.15;;;;;;;;;;5056841;28;20048;-91
2023/06/07 06:00:47;;;;;;;12.40;4.13;;;;;;;;;;5056352;28;20370;-91
2023/06/07 06:03:16;;;;;;;14.02;4.35;;;;;;;;;;5040216;28;20070;-92
2023/06/07 06:05:42;;;;;;;12.02;4.13;;;;;;;;;;5056107;28;20041;-91
2023/06/07 06:08:15;;;;;;;8.98;3.70;;;;;;;;;;5056671;28;20098;-92
2023/06/07 06:10:41;;;;;;;10.50;4.20;;;;;;;;;;5073365;28;20048;-92
2023/06/07 06:13:15;;;;;;;15.70;4.80;;;;;;;;;;5058672;28;20040;-94
2023/06/07 06:15:44;;;;;;;12.52;4.03;;;;;;;;;;5077887;28;20103;-95
2023/06/07 06:18:12;;;;;;;9.80;3.38;;;;;;;;;;5060295;28;20048;-94
2023/06/07 06:20:43;;;;;;;9.05;3.13;;;;;;;;;;5060661;28;20045;-91
2023/06/07 06:23:25;;;;;;;13.02;3.65;;;;;;;;;;5060686;28;20545;-94
2023/06/07 06:25:53;;;;;;;7.45;2.97;;;;;;;;;;5061400;28;20052;-93
2023/06/07 06:28:21;;;;;;;11.27;3.33;;;;;;;;;;5061244;28;20477;-94
2023/06/07 06:30:47;;;;;;;10.70;3.55;;;;;;;;;;5061477;28;20044;-94
2023/06/07 06:33:13;;;;;;;12.55;4.05;;;;;;;;;;5079489;28;20067;-92
2023/06/07 06:35:40;;;;;;;9.57;3.35;;;;;;;;;;5086518;28;20077;-94
2023/06/07 06:38:06;;;;;;;8.57;3.20;;;;;;;;;;5065295;28;20044;-94
2023/06/07 06:40:32;;;;;;;13.02;3.70;;;;;;;;;;5062429;28;20056;-92
2023/06/07 06:43:03;;;;;;;8.35;3.70;;;;;;;;;;5062317;28;20055;-93
2023/06/07 06:45:29;;;;;;;8.18;3.05;;;;;;;;;;5080193;28;20095;-92
2023/06/07 06:47:58;;;;;;;9.98;3.38;;;;;;;;;;5077303;28;20045;-94
2023/06/07 06:50:29;;;;;;;14.50;3.72;;;;;;;;;;5060133;28;20051;-93
2023/06/07 06:52:55;;;;;;;8.80;2.85;;;;;;;;;;5076236;28;20040;-93
2023/06/07 06:55:21;;;;;;;10.68;3.10;;;;;;;;;;5060459;28;20385;-93
2023/06/07 06:57:47;;;;;;;8.95;2.42;;;;;;;;;;5061432;28;20063;-93
2023/06/07 07:00:16;;;;;;;10.32;2.85;;;;;;;;;;5060396;28;20051;-93
2023/06/07 07:02:42;;;;;;;8.65;3.08;;;;;;;;;;5059946;28;20056;-93
2023/06/07 07:05:09;;;;;;;8.57;3.10;;;;;;;;;;5059906;28;20045;-95
2023/06/07 07:07:37;;;;;;;16.90;3.47;;;;;;;;;;5059614;28;20045;-93
2023/06/07 07:10:04;;;;;;;17.60;3.38;;;;;;;;;;5077513;28;20045;-94
2023/06/07 07:12:30;;;;;;;11.55;3.20;;;;;;;;;;5060903;28;20182;-93
2023/06/07 07:14:56;;;;;;;9.85;2.42;;;;;;;;;;5061350;28;20052;-94
2023/06/07 07:17:25;;;;;;;12.23;2.75;;;;;;;;;;5072125;28;20044;-94
2023/06/07 07:19:53;;;;;;;12.40;3.35;;;;;;;;;;5081611;28;20044;-93
2023/06/07 07:22:19;;;;;;;10.82;3.53;;;;;;;;;;5091721;28;20521;-92
2023/06/07 07:24:45;;;;;;;9.43;2.60;;;;;;;;;;5080431;28;20048;-92
2023/06/07 07:27:12;;;;;;;10.20;2.83;;;;;;;;;;5062192;28;20060;-92
2023/06/07 07:29:38;;;;;;;13.13;3.55;;;;;;;;;;5059318;28;20056;-93
2023/06/07 07:32:07;;;;;;;9.68;3.17;;;;;;;;;;5076566;28;20078;-94
2023/06/07 07:34:33;;;;;;;9.05;2.65;;;;;;;;;;5076127;28;20481;-92
2023/06/07 07:37:02;;;;;;;9.85;3.05;;;;;;;;;;5058701;28;20243;-93
2023/06/07 07:39:28;;;;;;;14.57;3.60;;;;;;;;;;5058132;28;20048;-91
2023/06/07 07:41:57;;;;;;;12.18;2.90;;;;;;;;;;5075838;28;20044;-93
2023/06/07 07:44:23;;;;;;;8.10;2.67;;;;;;;;;;5058938;28;20049;-92
2023/06/07 07:46:49;;;;;;;8.85;2.50;;;;;;;;;;5074508;28;20041;-91
2023/06/07 07:49:18;;;;;;;9.80;2.97;;;;;;;;;;5074725;28;20158;-92
2023/06/07 07:51:44;;;;;;;13.38;3.60;;;;;;;;;;5057380;28;20105;-92
2023/06/07 07:54:10;;;;;;;7.70;2.47;;;;;;;;;;5057932;28;20049;-92
2023/06/07 07:56:36;;;;;;;7.68;2.70;;;;;;;;;;5058832;28;20049;-91
2023/06/07 07:59:06;;;;;;;9.25;2.45;;;;;;;;;;5059335;28;20044;-91
2023/06/07 08:01:34;;;;;;;7.55;2.17;;;;;;;;;;5075294;28;20056;-91
2023/06/07 08:04:01;;;;;;;8.45;2.65;;;;;;;;;;5075247;28;20052;-90
2023/06/07 08:06:27;;;;;;;9.88;2.60;;;;;;;;;;5074182;28;20075;-92
2023/06/07 08:08:53;;;;;;;7.82;3.15;;;;;;;;;;5056874;28;20502;-91
2023/06/07 08:11:21;;;;;;;10.45;2.72;;;;;;;;;;5074861;28;20044;-91
2023/06/07 08:13:47;;;;;;;7.68;2.45;;;;;;;;;;5056920;28;20603;-90
2023/06/07 08:16:13;;;;;;;7.95;2.67;;;;;;;;;;5073668;28;20091;-92
2023/06/07 08:18:40;;;;;;;8.57;2.88;;;;;;;;;;5057291;28;20052;-90
2023/06/07 08:21:06;;;;;;;12.20;2.95;;;;;;;;;;5056665;28;20048;-91
2023/06/07 08:23:32;;;;;;;8.55;2.53;;;;;;;;;;5057829;28;20079;-91
2023/06/07 08:25:59;;;;;;;8.38;2.58;;;;;;;;;;5057305;28;20110;-90
2023/06/07 08:28:25;;;;;;;9.25;2.60;;;;;;;;;;5073718;28;20063;-92
2023/06/07 08:30:55;;;;;;;6.43;2.30;;;;;;;;;;5057544;28;20052;-91
2023/06/07 08:33:21;;;;;;;9.63;2.40;;;;;;;;;;5056847;28;20156;-90
2023/06/07 08:35:47;;;;;;;9.55;2.95;;;;;;;;;;5056145;28;20049;-90
2023/06/07 08:38:14;;;;;;;8.45;2.97;;;;;;;;;;5056892;28;20090;-89
2023/06/07 08:40:40;;;;;;;10.10;3.15;;;;;;;;;;5056858;28;20060;-90
2023/06/07 08:43:07;;;;;;;9.52;2.65;;;;;;;;;;5057342;28;20431;-90
2023/06/07 08:45:34;;;;;;;11.07;2.53;;;;;;;;;;5056641;28;20048;-90
2023/06/07 08:48:06;;;;;;;6.63;2.60;;;;;;;;;;5056411;28;20055;-91
2023/06/07 08:50:33;;;;;;;8.75;2.63;;;;;;;;;;5057455;28;20055;-91
2023/06/07 08:53:03;;;;;;;9.40;3.72;;;;;;;;;;5056060;28;20397;-90
2023/06/07 08:55:33;;;;;;;8.75;3.10;;;;;;;;;;5056992;28;20045;-89
2023/06/07 08:57:59;;;;;;;5.80;2.50;;;;;;;;;;5056965;28;20082;-92
2023/06/07 09:00:26;;;;;;;7.80;3.00;;;;;;;;;;5073454;28;20044;-91
2023/06/07 09:02:53;;;;;;;6.38;2.60;;;;;;;;;;5056575;28;20476;-92
2023/06/07 09:05:22;;;;;;;11.20;3.40;;;;;;;;;;5056239;28;20052;-91
2023/06/07 09:07:49;;;;;;;7.18;2.42;;;;;;;;;;5072953;28;20047;-90
2023/06/07 09:10:17;;;;;;;6.85;2.58;;;;;;;;;;5073338;28;20051;-93
2023/06/07 09:12:47;;;;;;;7.50;2.33;;;;;;;;;;5056443;28;20064;-92
2023/06/07 09:15:18;;;;;;;8.82;2.75;;;;;;;;;;5056831;28;20052;-91
2023/06/07 09:17:53;;;;;;;7.93;2.55;;;;;;;;;;5074426;28;20082;-90
2023/06/07 09:20:20;;;;;;;7.75;3.50;;;;;;;;;;5081894;28;20493;-91
2023/06/07 09:22:55;;;;;;;7.60;3.13;;;;;;;;;;5057418;28;20078;-92
2023/06/07 09:25:22;;;;;;;5.68;2.28;;;;;;;;;;5073374;28;20146;-92
2023/06/07 09:27:51;;;;;;;8.00;2.17;;;;;;;;;;5038950;28;20056;-92
2023/06/07 09:30:18;;;;;;;6.88;2.38;;;;;;;;;;5056410;28;20045;-94
2023/06/07 09:32:44;;;;;;;6.93;2.80;;;;;;;;;;5039937;28;20044;-91
2023/06/07 09:35:13;;;;;;;7.32;2.97;;;;;;;;;;5056184;28;20054;-91
2023/06/07 09:37:50;;;;;;;5.55;2.55;;;;;;;;;;5056065;28;20078;-92
2023/06/07 09:40:26;;;;;;;9.98;2.50;;;;;;;;;;5056562;28;20049;-89
2023/06/07 09:42:59;;;;;;;8.55;2.75;;;;;;;;;;5056081;28;20435;-90
2023/06/07 09:45:25;;;;;;;8.20;2.75;;;;;;;;;;5072008;28;20040;-91
2023/06/07 09:48:05;;;;;;;9.63;2.80;;;;;;;;;;5054196;28;20044;-92
2023/06/07 09:50:31;;;;;;;4.60;2.55;;;;;;;;;;5065575;28;20048;-91
2023/06/07 09:52:58;;;;;;;7.28;2.50;;;;;;;;;;5059912;28;20048;-91
2023/06/07 09:55:28;;;;;;;11.43;3.03;;;;;;;;;;5059844;28;20044;-92
2023/06/07 09:57:57;;;;;;;4.85;1.77;;;;;;;;;;5059857;28;20037;-91
2023/06/07 10:00:25;;;;;;;5.75;2.00;;;;;;;;;;5059794;28;20050;-91
2023/06/07 10:02:51;;;;;;;6.63;2.20;;;;;;;;;;5075789;28;20574;-90
2023/06/07 10:05:21;;;;;;;8.13;2.78;;;;;;;;;;5076890;28;20055;-91
2023/06/07 10:07:50;;;;;;;10.10;2.63;;;;;;;;;;5059676;28;20040;-93
2023/06/07 10:10:19;;;;;;;6.50;2.38;;;;;;;;;;5059614;28;20048;-90
2023/06/07 10:12:48;;;;;;;4.97;1.70;;;;;;;;;;5059523;28;20484;-90
2023/06/07 10:15:16;;;;;;;6.50;1.80;;;;;;;;;;5059874;28;20125;-90
2023/06/07 10:17:42;;;;;;;4.63;1.90;;;;;;;;;;5076157;28;20091;-90
2023/06/07 10:20:12;;;;;;;9.20;2.53;;;;;;;;;;5075900;28;20079;-90
2023/06/07 10:22:43;;;;;;;7.53;2.28;;;;;;;;;;5075708;28;20364;-90
2023/06/07 10:25:10;;;;;;;5.35;2.53;;;;;;;;;;5076577;28;20047;-91
2023/06/07 10:28:00;;;;;;;5.43;2.00;;;;;;;;;;5059224;28;20057;-90
2023/06/07 10:30:27;;;;;;;6.82;2.05;;;;;;;;;;5059495;28;20136;-91
2023/06/07 10:32:54;;;;;;;6.80;2.35;;;;;;;;;;5059287;28;20098;-91
2023/06/07 10:35:20;;;;;;;7.10;2.40;;;;;;;;;;5059217;28;20044;-90
2023/06/07 10:37:53;;;;;;;6.15;2.47;;;;;;;;;;5076209;28;20068;-90
2023/06/07 10:40:24;;;;;;;6.05;2.35;;;;;;;;;;5059423;28;20099;-90
2023/06/07 10:42:51;;;;;;;8.98;2.38;;;;;;;;;;5059905;28;20049;-90
2023/06/07 10:45:18;;;;;;;7.90;2.35;;;;;;;;;;5058626;28;20041;-90
2023/06/07 10:47:44;;;;;;;5.50;2.15;;;;;;;;;;5075494;28;20131;-90
2023/06/07 10:50:32;;;;;;;7.00;2.05;;;;;;;;;;5076124;28;20048;-91
2023/06/07 10:52:59;;;;;;;6.55;2.08;;;;;;;;;;5058944;28;20048;-91
2023/06/07 10:55:26;;;;;;;5.97;1.98;;;;;;;;;;5058885;28;20048;-91
2023/06/07 10:57:53;;;;;;;6.47;2.17;;;;;;;;;;5075308;28;20072;-94
2023/06/07 11:00:33;;;;;;;6.00;2.20;;;;;;;;;;5074940;28;20093;-93
2023/06/07 11:03:10;;;;;;;5.30;2.00;;;;;;;;;;5075259;28;20098;-92
2023/06/07 11:05:54;;;;;;;5.05;1.65;;;;;;;;;;5059138;28;20048;-92
2023/06/07 11:08:20;;;;;;;;;;;;;;;;;;5076026;28;20052;-90
2023/06/07 11:10:47;;;;;;;5.22;1.85;;;;;;;;;;5075782;28;20418;-90
2023/06/07 11:13:13;;;;;;;6.63;2.10;;;;;;;;;;5059078;28;20404;-91
2023/06/07 11:15:39;;;;;;;6.13;1.75;;;;;;;;;;5058794;28;20049;-90
2023/06/07 11:18:07;;;;;;;4.80;1.42;;;;;;;;;;5042017;28;20041;-90
2023/06/07 11:20:37;;;;;;;4.53;1.70;;;;;;;;;;5058326;28;20194;-90
2023/06/07 11:23:22;;;;;;;8.35;2.00;;;;;;;;;;5058293;28;20049;-91
2023/06/07 11:25:51;;;;;;;6.90;2.00;;;;;;;;;;5074928;28;20094;-90
2023/06/07 11:28:31;;;;;;;4.32;1.70;;;;;;;;;;5075967;28;20092;-91
2023/06/07 11:30:58;;;;;;;6.20;1.90;;;;;;;;;;5075173;28;20051;-92
2023/06/07 11:33:25;;;;;;;3.40;1.65;;;;;;;;;;5058907;28;20135;-93
2023/06/07 11:35:55;;;;;;;4.72;1.77;;;;;;;;;;5060910;28;20187;-93
2023/06/07 11:38:22;;;;;;;3.47;1.27;;;;;;;;;;5059093;28;20143;-92
2023/06/07 11:40:48;;;;;;;3.72;1.55;;;;;;;;;;5058621;28;20136;-93
2023/06/07 11:43:15;;;;;;;4.05;1.50;;;;;;;;;;5075873;28;20053;-91
2023/06/07 11:45:44;;;;;;;4.43;1.83;;;;;;;;;;5058754;28;20095;-92
2023/06/07 11:48:11;;;;;;;5.57;1.50;;;;;;;;;;5074923;28;20048;-91
2023/06/07 11:50:37;;;;;;;6.38;1.58;;;;;;;;;;5057806;28;20049;-94
2023/06/07 11:53:04;;;;;;;4.40;1.33;;;;;;;;;;5057913;28;20044;-91
2023/06/07 11:55:30;;;;;;;3.83;1.15;;;;;;;;;;5075641;28;20480;-91
2023/06/07 11:57:56;;;;;;;5.10;1.52;;;;;;;;;;5058491;28;20094;-92
2023/06/07 12:00:25;;;;;;;7.45;1.95;;;;;;;;;;5074943;28;20055;-94
2023/06/07 12:02:59;;;;;;;4.22;1.17;;;;;;;;;;5060271;28;20044;-92
2023/06/07 12:05:34;;;;;;;6.50;1.48;;;;;;;;;;5082980;28;20056;-94
2023/06/07 12:08:26;;;;;;;3.72;1.95;;;;;;;;;;5058781;28;20051;-93
2023/06/07 12:10:53;;;;;;;5.85;1.48;;;;;;;;;;5054547;28;20052;-94
2023/06/07 12:13:23;;;;;;;6.85;1.42;;;;;;;;;;5075086;28;20052;-94
2023/06/07 12:15:57;;;;;;;4.85;1.70;;;;;;;;;;5074862;28;20094;-94
2023/06/07 12:18:30;;;;;;;2.78;1.23;;;;;;;;;;5058683;28;20464;-93
2023/06/07 12:21:04;;;;;;;5.38;1.90;;;;;;;;;;5058963;28;20040;-94
2023/06/07 12:23:30;;;;;;;4.68;1.67;;;;;;;;;;5059613;28;20045;-93
2023/06/07 12:26:09;;;;;;;5.55;1.20;;;;;;;;;;5061043;28;20048;-95
2023/06/07 12:28:35;;;;;;;4.55;1.60;;;;;;;;;;5070689;28;20051;-93
2023/06/07 12:31:01;;;;;;;5.88;1.88;;;;;;;;;;5078508;28;20044;-92
2023/06/07 12:33:28;;;;;;;4.47;1.40;;;;;;;;;;5065791;28;20504;-94
2023/06/07 12:35:58;;;;;;;5.45;1.42;;;;;;;;;;5062342;28;20500;-92
2023/06/07 12:38:24;;;;;;;3.80;1.33;;;;;;;;;;5063128;28;20048;-94
2023/06/07 12:40:53;;;;;;;3.25;1.50;;;;;;;;;;5060133;28;20052;-94
2023/06/07 12:43:19;;;;;;;6.70;1.30;;;;;;;;;;5057174;28;20041;-92
2023/06/07 12:45:45;;;;;;;6.05;1.58;;;;;;;;;;5056993;28;20048;-92
2023/06/07 12:48:12;;;;;;;5.25;1.75;;;;;;;;;;5056515;28;20432;-92
2023/06/07 12:50:40;;;;;;;4.97;1.52;;;;;;;;;;5073441;28;20054;-93
2023/06/07 12:53:06;;;;;;;7.47;1.83;;;;;;;;;;5073061;28;20036;-92
2023/06/07 12:55:32;;;;;;;3.65;1.58;;;;;;;;;;5073528;28;20087;-93
2023/06/07 12:57:59;;;;;;;4.28;1.50;;;;;;;;;;5057120;28;20041;-92
2023/06/07 13:00:30;;;;;;;5.70;1.52;;;;;;;;;;5073443;28;20045;-93
2023/06/07 13:02:56;;;;;;;5.40;1.20;;;;;;;;;;5057079;28;20090;-94
2023/06/07 13:05:23;;;;;;;3.80;1.48;;;;;;;;;;5056568;28;20056;-92
2023/06/07 13:07:49;;;;;;;4.78;1.40;;;;;;;;;;5056616;28;20103;-90
2023/06/07 13:10:15;;;;;;;4.53;1.33;;;;;;;;;;5057251;28;20041;-91
2023/06/07 13:12:45;;;;;;;3.17;1.60;;;;;;;;;;5073854;28;20052;-93
2023/06/07 13:15:11;;;;;;;4.50;1.60;;;;;;;;;;5073100;28;20111;-90
2023/06/07 13:17:37;;;;;;;5.35;1.50;;;;;;;;;;5073136;28;20052;-90
2023/06/07 13:20:04;;;;;;;5.30;1.13;;;;;;;;;;5056458;28;20059;-89
2023/06/07 13:22:32;;;;;;;7.28;1.58;;;;;;;;;;5073326;28;20083;-91
2023/06/07 13:24:59;;;;;;;5.40;1.65;;;;;;;;;;5073327;28;20067;-91
2023/06/07 13:27:26;;;;;;;3.17;1.35;;;;;;;;;;5055729;28;20135;-91
2023/06/07 13:29:53;;;;;;;3.83;1.80;;;;;;;;;;5072702;28;20048;-92
2023/06/07 13:32:19;;;;;;;4.32;1.63;;;;;;;;;;5073458;28;20083;-92
2023/06/07 13:34:45;;;;;;;2.42;1.30;;;;;;;;;;5040276;28;20052;-93
2023/06/07 13:37:11;;;;;;;5.78;1.63;;;;;;;;;;5056560;28;20450;-93
2023/06/07 13:39:37;;;;;;;4.90;1.50;;;;;;;;;;5073154;28;20048;-94
2023/06/07 13:42:05;;;;;;;5.47;2.00;;;;;;;;;;5073410;28;20477;-94
2023/06/07 13:44:38;;;;;;;5.35;1.48;;;;;;;;;;5057595;28;20053;-95
2023/06/07 13:47:07;;;;;;;4.85;1.90;;;;;;;;;;5057525;28;20036;-95
2023/06/07 13:49:35;;;;;;;4.78;1.42;;;;;;;;;;5075857;28;20145;-95
2023/06/07 13:52:04;;;;;;;6.35;1.67;;;;;;;;;;5078821;28;20074;-96
2023/06/07 13:54:31;;;;;;;5.72;1.52;;;;;;;;;;5059428;28;20141;-95
2023/06/07 13:56:58;;;;;;;5.05;1.95;;;;;;;;;;5061842;28;20045;-96
2023/06/07 13:59:24;;;;;;;3.33;1.73;;;;;;;;;;5059279;28;20051;-96
2023/06/07 14:02:01;;;;;;;;;;;;;;;;;;;;;
2023/06/07 14:04:28;;;;;;;5.97;1.50;;;;;;;;;;5075849;28;20481;-96
2023/06/07 14:07:04;;;;;;;3.22;1.60;;;;;;;;;;5064928;28;20515;-96
2023/06/07 14:09:32;;;;;;;5.85;1.70;;;;;;;;;;5078152;28;20048;-94
2023/06/07 14:11:59;;;;;;;4.40;1.50;;;;;;;;;;5075194;28;20071;-96
2023/06/07 14:14:25;;;;;;;5.00;1.55;;;;;;;;;;5076005;28;20399;-95
2023/06/07 14:16:53;;;;;;;3.50;1.58;;;;;;;;;;5059984;28;20044;-96
2023/06/07 14:19:22;;;;;;;5.55;1.48;;;;;;;;;;5066056;28;20169;-96
2023/06/07 14:21:56;;;;;;;4.85;2.08;;;;;;;;;;5069108;28;20108;-95
2023/06/07 14:24:33;;;;;;;2.90;1.30;;;;;;;;;;5067428;28;20102;-96
2023/06/07 14:27:00;;;;;;;3.45;2.00;;;;;;;;;;5063137;28;20091;-96
2023/06/07 14:29:29;;;;;;;4.95;1.58;;;;;;;;;;5046375;28;20049;-96
2023/06/07 14:31:55;;;;;;;6.82;2.35;;;;;;;;;;5069495;28;20057;-96
2023/06/07 14:34:26;;;;;;;7.63;1.75;;;;;;;;;;5055200;28;20040;-96
2023/06/07 14:36:55;;;;;;;4.63;1.52;;;;;;;;;;5091458;22;20513;-95
2023/06/07 14:39:21;;;;;;;8.10;2.25;;;;;;;;;;5077504;28;20045;-95
2023/06/07 14:41:47;;;;;;;5.53;2.10;;;;;;;;;;5056926;28;20041;-96
2023/06/07 14:44:14;;;;;;;5.90;2.10;;;;;;;;;;5038965;28;20123;-94
2023/06/07 14:46:42;;;;;;;4.40;1.70;;;;;;;;;;5072698;28;20046;-95
2023/06/07 14:49:08;;;;;;;6.15;2.22;;;;;;;;;;5072130;28;20045;-95